EZY1472 EGPH-EKVG
Flight info
| Callsign | EZY1472 |
|---|---|
| Flight time | 1h 35m |
| Altitude | 38000 |
| Route | GRICE P600 GLESK DCT SMOKI DCT NALAN DCT SUDUR |
| Aircraft | A20N/M-SDE2E3FGHIRWXY/LB1 |
Departure
| Time | 2026-05-07 09:40 |
|---|---|
| Airport | Edinburgh Airport (EGPH) |
Arrival
| Time | 2026-05-07 11:15 |
|---|---|
| Airport | Vágar Airport (EKVG) |
| Time | Latitude | Longitude | Altitude | Speed | Heading |
|---|---|---|---|---|---|
| 2026-05-07 09:09 | 55.94906 | -3.36496 | 112 ft | 0 kts | 148° |
| 2026-05-07 09:30 | 55.94925 | -3.36519 | 87 ft | 4 kts | 140° |
| 2026-05-07 09:30 | 55.94944 | -3.36553 | 112 ft | 4 kts | 119° |
| 2026-05-07 09:30 | 55.94949 | -3.36593 | 109 ft | 3 kts | 62° |
| 2026-05-07 09:30 | 55.94946 | -3.36605 | 111 ft | 0 kts | 59° |
| 2026-05-07 09:33 | 55.94948 | -3.36598 | 111 ft | 3 kts | 59° |
| 2026-05-07 09:33 | 55.94973 | -3.36523 | 111 ft | 10 kts | 59° |
| 2026-05-07 09:34 | 55.95015 | -3.36407 | 112 ft | 9 kts | 45° |
| 2026-05-07 09:34 | 55.95078 | -3.36402 | 112 ft | 10 kts | 9° |
| 2026-05-07 09:34 | 55.95130 | -3.36311 | 112 ft | 12 kts | 58° |
| 2026-05-07 09:34 | 55.95176 | -3.36169 | 110 ft | 14 kts | 61° |
| 2026-05-07 09:35 | 55.95229 | -3.36001 | 112 ft | 17 kts | 59° |
| 2026-05-07 09:35 | 55.95291 | -3.35821 | 112 ft | 16 kts | 57° |
| 2026-05-07 09:35 | 55.95345 | -3.35661 | 111 ft | 16 kts | 60° |
| 2026-05-07 09:35 | 55.95401 | -3.35500 | 112 ft | 13 kts | 57° |
| 2026-05-07 09:36 | 55.95454 | -3.35406 | 112 ft | 7 kts | 7° |
| 2026-05-07 09:36 | 55.95483 | -3.35425 | 112 ft | 4 kts | 332° |
| 2026-05-07 09:36 | 55.95494 | -3.35435 | 110 ft | 0 kts | 330° |
| 2026-05-07 09:37 | 55.95531 | -3.35473 | 110 ft | 11 kts | 330° |
| 2026-05-07 09:38 | 55.95560 | -3.35512 | 109 ft | 0 kts | 307° |
| 2026-05-07 09:38 | 55.95567 | -3.35549 | 111 ft | 6 kts | 278° |
| 2026-05-07 09:38 | 55.95553 | -3.35617 | 110 ft | 3 kts | 239° |
| 2026-05-07 09:38 | 55.95551 | -3.35624 | 111 ft | 0 kts | 239° |
| 2026-05-07 09:39 | 55.95543 | -3.35647 | 113 ft | 14 kts | 239° |
| 2026-05-07 09:39 | 55.95346 | -3.36221 | 107 ft | 94 kts | 239° |
| 2026-05-07 09:39 | 55.94896 | -3.37551 | 112 ft | 154 kts | 238° |
| 2026-05-07 09:40 | 55.94323 | -3.39253 | 688 ft | 162 kts | 239° |
| 2026-05-07 09:40 | 55.93775 | -3.41025 | 1583 ft | 165 kts | 238° |
| 2026-05-07 09:40 | 55.93252 | -3.42849 | 2454 ft | 163 kts | 239° |
| 2026-05-07 09:40 | 55.92754 | -3.44640 | 3271 ft | 159 kts | 241° |
| 2026-05-07 09:41 | 55.92353 | -3.46490 | 3937 ft | 168 kts | 261° |
| 2026-05-07 09:41 | 55.92678 | -3.48596 | 4419 ft | 192 kts | 303° |
| 2026-05-07 09:41 | 55.93787 | -3.50136 | 4883 ft | 216 kts | 329° |
| 2026-05-07 09:41 | 55.95254 | -3.51169 | 5274 ft | 238 kts | 338° |
| 2026-05-07 09:42 | 55.96906 | -3.52124 | 5634 ft | 259 kts | 338° |
| 2026-05-07 09:42 | 55.98678 | -3.53209 | 6144 ft | 276 kts | 337° |
| 2026-05-07 09:42 | 56.00492 | -3.54422 | 6956 ft | 279 kts | 335° |
| 2026-05-07 09:42 | 56.02291 | -3.55692 | 7759 ft | 283 kts | 334° |
| 2026-05-07 09:43 | 56.04127 | -3.57029 | 8592 ft | 286 kts | 334° |
| 2026-05-07 09:43 | 56.05978 | -3.58398 | 9437 ft | 290 kts | 333° |
| 2026-05-07 09:43 | 56.07858 | -3.59795 | 10225 ft | 295 kts | 333° |
| 2026-05-07 09:43 | 56.09818 | -3.61257 | 10549 ft | 317 kts | 333° |
| 2026-05-07 09:44 | 56.11922 | -3.62827 | 10788 ft | 339 kts | 334° |
| 2026-05-07 09:44 | 56.14136 | -3.64469 | 11360 ft | 347 kts | 334° |
| 2026-05-07 09:44 | 56.16380 | -3.66123 | 12089 ft | 351 kts | 335° |
| 2026-05-07 09:44 | 56.18798 | -3.67091 | 12813 ft | 362 kts | 356° |
| 2026-05-07 09:45 | 56.21309 | -3.66478 | 13517 ft | 369 kts | 18° |
| 2026-05-07 09:45 | 56.23604 | -3.64384 | 14202 ft | 374 kts | 34° |
| 2026-05-07 09:45 | 56.25706 | -3.61566 | 14833 ft | 378 kts | 38° |
| 2026-05-07 09:45 | 56.27769 | -3.58594 | 15477 ft | 382 kts | 38° |
| 2026-05-07 09:46 | 56.29875 | -3.55630 | 16095 ft | 386 kts | 36° |
| 2026-05-07 09:46 | 56.32034 | -3.52709 | 16726 ft | 389 kts | 35° |
| 2026-05-07 09:46 | 56.34232 | -3.49818 | 17346 ft | 393 kts | 34° |
| 2026-05-07 09:46 | 56.36465 | -3.46918 | 17965 ft | 397 kts | 33° |
| 2026-05-07 09:47 | 56.38727 | -3.43993 | 18539 ft | 401 kts | 33° |
| 2026-05-07 09:47 | 56.41001 | -3.41051 | 19087 ft | 404 kts | 33° |
| 2026-05-07 09:47 | 56.43291 | -3.38083 | 19614 ft | 407 kts | 33° |
| 2026-05-07 09:47 | 56.45575 | -3.35135 | 20154 ft | 410 kts | 32° |
| 2026-05-07 09:48 | 56.47932 | -3.32205 | 20679 ft | 413 kts | 32° |
| 2026-05-07 09:48 | 56.50359 | -3.29385 | 21198 ft | 414 kts | 24° |
| 2026-05-07 09:48 | 56.53044 | -3.27636 | 21684 ft | 410 kts | 7° |
| 2026-05-07 09:48 | 56.55864 | -3.27286 | 22168 ft | 405 kts | 351° |
| 2026-05-07 09:49 | 56.58600 | -3.28293 | 22660 ft | 401 kts | 339° |
| 2026-05-07 09:49 | 56.61274 | -3.29796 | 23179 ft | 403 kts | 338° |
| 2026-05-07 09:49 | 56.63956 | -3.31346 | 23657 ft | 406 kts | 338° |
| 2026-05-07 09:49 | 56.66661 | -3.32882 | 24066 ft | 409 kts | 338° |
| 2026-05-07 09:50 | 56.69391 | -3.34398 | 24458 ft | 412 kts | 338° |
| 2026-05-07 09:50 | 56.72157 | -3.35911 | 24876 ft | 415 kts | 338° |
| 2026-05-07 09:50 | 56.74939 | -3.37422 | 25273 ft | 418 kts | 338° |
| 2026-05-07 09:50 | 56.77731 | -3.38938 | 25665 ft | 421 kts | 338° |
| 2026-05-07 09:51 | 56.80550 | -3.40470 | 26054 ft | 423 kts | 338° |
| 2026-05-07 09:51 | 56.83384 | -3.42012 | 26421 ft | 426 kts | 338° |
| 2026-05-07 09:51 | 56.86200 | -3.43549 | 26786 ft | 429 kts | 338° |
| 2026-05-07 09:51 | 56.89065 | -3.45115 | 27143 ft | 431 kts | 338° |
| 2026-05-07 09:52 | 56.91946 | -3.46693 | 27497 ft | 434 kts | 338° |
| 2026-05-07 09:52 | 56.94846 | -3.48285 | 27839 ft | 436 kts | 338° |
| 2026-05-07 09:52 | 56.97769 | -3.49894 | 28155 ft | 439 kts | 338° |
| 2026-05-07 09:52 | 57.00698 | -3.51508 | 28498 ft | 441 kts | 338° |
| 2026-05-07 09:53 | 57.03650 | -3.53136 | 28761 ft | 445 kts | 338° |
| 2026-05-07 09:53 | 57.06620 | -3.54778 | 29050 ft | 447 kts | 338° |
| 2026-05-07 09:53 | 57.09605 | -3.56430 | 29357 ft | 448 kts | 337° |
| 2026-05-07 09:53 | 57.12596 | -3.58088 | 29647 ft | 451 kts | 337° |
| 2026-05-07 09:54 | 57.15612 | -3.59763 | 29942 ft | 453 kts | 337° |
| 2026-05-07 09:54 | 57.18637 | -3.61445 | 30211 ft | 455 kts | 337° |
| 2026-05-07 09:54 | 57.21680 | -3.63142 | 30479 ft | 457 kts | 337° |
| 2026-05-07 09:54 | 57.24730 | -3.64844 | 30744 ft | 458 kts | 337° |
| 2026-05-07 09:55 | 57.27754 | -3.66535 | 31006 ft | 460 kts | 337° |
| 2026-05-07 09:55 | 57.30818 | -3.68251 | 31329 ft | 460 kts | 337° |
| 2026-05-07 09:55 | 57.33883 | -3.69968 | 31681 ft | 459 kts | 337° |
| 2026-05-07 09:55 | 57.36940 | -3.71685 | 32042 ft | 458 kts | 336° |
| 2026-05-07 09:56 | 57.39984 | -3.73399 | 32377 ft | 457 kts | 336° |
| 2026-05-07 09:56 | 57.43024 | -3.75113 | 32708 ft | 456 kts | 336° |
| 2026-05-07 09:56 | 57.46070 | -3.76835 | 33022 ft | 456 kts | 336° |
| 2026-05-07 09:56 | 57.49103 | -3.78553 | 33331 ft | 455 kts | 336° |
| 2026-05-07 09:57 | 57.52128 | -3.80268 | 33638 ft | 454 kts | 336° |
| 2026-05-07 09:57 | 57.55153 | -3.81987 | 33927 ft | 454 kts | 336° |
| 2026-05-07 09:57 | 57.58172 | -3.83706 | 34156 ft | 454 kts | 336° |
| 2026-05-07 09:57 | 57.61189 | -3.85426 | 34374 ft | 454 kts | 336° |
| 2026-05-07 09:58 | 57.64207 | -3.87151 | 34582 ft | 453 kts | 336° |
| 2026-05-07 09:58 | 57.67184 | -3.88856 | 34780 ft | 453 kts | 336° |
| 2026-05-07 09:58 | 57.70204 | -3.90588 | 34983 ft | 454 kts | 336° |
| 2026-05-07 09:58 | 57.73222 | -3.92323 | 35169 ft | 454 kts | 336° |
| 2026-05-07 09:59 | 57.76242 | -3.94061 | 35354 ft | 454 kts | 336° |
| 2026-05-07 09:59 | 57.79257 | -3.95799 | 35544 ft | 453 kts | 336° |
| 2026-05-07 09:59 | 57.82268 | -3.97537 | 35727 ft | 453 kts | 337° |
| 2026-05-07 09:59 | 57.85284 | -3.99282 | 35890 ft | 453 kts | 337° |
| 2026-05-07 10:00 | 57.88288 | -4.01023 | 36057 ft | 453 kts | 337° |
| 2026-05-07 10:00 | 57.91305 | -4.02774 | 36218 ft | 453 kts | 337° |
| 2026-05-07 10:00 | 57.94319 | -4.04526 | 36369 ft | 453 kts | 337° |
| 2026-05-07 10:00 | 57.97335 | -4.06283 | 36520 ft | 453 kts | 337° |
| 2026-05-07 10:01 | 58.00350 | -4.08042 | 36674 ft | 453 kts | 337° |
| 2026-05-07 10:01 | 58.03362 | -4.09802 | 36833 ft | 453 kts | 337° |
| 2026-05-07 10:01 | 58.06380 | -4.11570 | 36975 ft | 453 kts | 337° |
| 2026-05-07 10:01 | 58.09394 | -4.13337 | 37125 ft | 453 kts | 338° |
| 2026-05-07 10:02 | 58.12398 | -4.15102 | 37268 ft | 453 kts | 338° |
| 2026-05-07 10:02 | 58.15411 | -4.16875 | 37394 ft | 453 kts | 338° |
| 2026-05-07 10:02 | 58.18418 | -4.18648 | 37522 ft | 452 kts | 338° |
| 2026-05-07 10:02 | 58.21424 | -4.20424 | 37653 ft | 452 kts | 338° |
| 2026-05-07 10:03 | 58.24424 | -4.22198 | 37760 ft | 452 kts | 338° |
| 2026-05-07 10:03 | 58.30433 | -4.25763 | 37867 ft | 452 kts | 338° |
| 2026-05-07 10:04 | 58.36397 | -4.29311 | 37868 ft | 451 kts | 338° |
| 2026-05-07 10:04 | 58.42400 | -4.32897 | 37855 ft | 451 kts | 338° |
| 2026-05-07 10:05 | 58.48390 | -4.36488 | 37853 ft | 451 kts | 338° |
| 2026-05-07 10:05 | 58.54386 | -4.40095 | 37849 ft | 451 kts | 338° |
| 2026-05-07 10:06 | 58.60365 | -4.43704 | 37844 ft | 450 kts | 337° |
| 2026-05-07 10:06 | 58.66343 | -4.47326 | 37845 ft | 450 kts | 337° |
| 2026-05-07 10:07 | 58.72316 | -4.50958 | 37832 ft | 449 kts | 337° |
| 2026-05-07 10:07 | 58.78235 | -4.54570 | 37828 ft | 449 kts | 337° |
| 2026-05-07 10:08 | 58.84189 | -4.58216 | 37825 ft | 449 kts | 337° |
| 2026-05-07 10:08 | 58.90138 | -4.61872 | 37821 ft | 449 kts | 337° |
| 2026-05-07 10:09 | 58.96093 | -4.65545 | 37814 ft | 449 kts | 337° |
| 2026-05-07 10:09 | 59.01046 | -4.68611 | 37809 ft | 449 kts | 337° |
| 2026-05-07 10:10 | 59.06995 | -4.72305 | 37815 ft | 449 kts | 337° |
| 2026-05-07 10:10 | 59.12966 | -4.76027 | 37812 ft | 451 kts | 337° |
| 2026-05-07 10:11 | 59.18947 | -4.79769 | 37817 ft | 452 kts | 337° |
| 2026-05-07 10:11 | 59.24945 | -4.83534 | 37826 ft | 453 kts | 337° |
| 2026-05-07 10:12 | 59.30962 | -4.87327 | 37833 ft | 455 kts | 337° |
| 2026-05-07 10:12 | 59.36977 | -4.91130 | 37826 ft | 453 kts | 337° |
| 2026-05-07 10:13 | 59.42975 | -4.94939 | 37816 ft | 453 kts | 337° |
| 2026-05-07 10:13 | 59.48974 | -4.98763 | 37811 ft | 453 kts | 337° |
| 2026-05-07 10:14 | 59.54932 | -5.02574 | 37812 ft | 453 kts | 337° |
| 2026-05-07 10:14 | 59.60941 | -5.06433 | 37804 ft | 454 kts | 337° |
| 2026-05-07 10:15 | 59.66941 | -5.10300 | 37801 ft | 454 kts | 337° |
| 2026-05-07 10:15 | 59.72942 | -5.14183 | 37804 ft | 454 kts | 337° |
| 2026-05-07 10:16 | 59.78947 | -5.18082 | 37793 ft | 454 kts | 337° |
| 2026-05-07 10:16 | 59.84948 | -5.21994 | 37797 ft | 454 kts | 337° |
| 2026-05-07 10:17 | 59.90949 | -5.25921 | 37791 ft | 454 kts | 337° |
| 2026-05-07 10:17 | 59.96946 | -5.29860 | 37789 ft | 453 kts | 337° |
| 2026-05-07 10:18 | 60.02944 | -5.33815 | 37788 ft | 453 kts | 337° |
| 2026-05-07 10:18 | 60.08900 | -5.37757 | 37791 ft | 453 kts | 337° |
| 2026-05-07 10:19 | 60.14884 | -5.41733 | 37786 ft | 453 kts | 337° |
| 2026-05-07 10:19 | 60.20871 | -5.45727 | 37786 ft | 453 kts | 337° |
| 2026-05-07 10:20 | 60.26842 | -5.49726 | 37779 ft | 452 kts | 337° |
| 2026-05-07 10:20 | 60.32808 | -5.53736 | 37778 ft | 452 kts | 337° |
| 2026-05-07 10:21 | 60.38773 | -5.57760 | 37771 ft | 451 kts | 337° |
| 2026-05-07 10:21 | 60.44675 | -5.61755 | 37320 ft | 449 kts | 337° |
| 2026-05-07 10:21 | 60.47644 | -5.63772 | 36620 ft | 452 kts | 337° |
| 2026-05-07 10:22 | 60.50636 | -5.65808 | 35774 ft | 456 kts | 336° |
| 2026-05-07 10:22 | 60.53671 | -5.67878 | 34850 ft | 462 kts | 336° |
| 2026-05-07 10:22 | 60.56733 | -5.69968 | 33998 ft | 466 kts | 335° |
| 2026-05-07 10:22 | 60.59820 | -5.72075 | 33140 ft | 467 kts | 335° |
| 2026-05-07 10:23 | 60.62895 | -5.74180 | 32313 ft | 466 kts | 335° |
| 2026-05-07 10:23 | 60.65967 | -5.76287 | 31494 ft | 466 kts | 335° |
| 2026-05-07 10:23 | 60.69029 | -5.78395 | 30686 ft | 465 kts | 335° |
| 2026-05-07 10:23 | 60.72092 | -5.80507 | 29868 ft | 465 kts | 334° |
| 2026-05-07 10:24 | 60.75159 | -5.82629 | 28896 ft | 465 kts | 334° |
| 2026-05-07 10:24 | 60.78209 | -5.84742 | 28160 ft | 460 kts | 334° |
| 2026-05-07 10:24 | 60.81225 | -5.86832 | 27506 ft | 455 kts | 334° |
| 2026-05-07 10:24 | 60.84205 | -5.88900 | 26821 ft | 450 kts | 334° |
| 2026-05-07 10:25 | 60.87123 | -5.90930 | 26165 ft | 446 kts | 334° |
| 2026-05-07 10:25 | 60.90051 | -5.92972 | 25536 ft | 442 kts | 334° |
| 2026-05-07 10:25 | 60.92939 | -5.94989 | 24936 ft | 437 kts | 334° |
| 2026-05-07 10:25 | 60.95809 | -5.96998 | 24326 ft | 433 kts | 334° |
| 2026-05-07 10:26 | 60.98571 | -5.99244 | 23812 ft | 420 kts | 327° |
| 2026-05-07 10:26 | 61.01072 | -6.02186 | 23307 ft | 407 kts | 319° |
| 2026-05-07 10:26 | 61.03274 | -6.05710 | 22777 ft | 395 kts | 312° |
| 2026-05-07 10:26 | 61.05334 | -6.09376 | 22307 ft | 388 kts | 313° |
| 2026-05-07 10:27 | 61.07375 | -6.12950 | 21835 ft | 381 kts | 313° |
| 2026-05-07 10:27 | 61.09382 | -6.16460 | 21369 ft | 375 kts | 314° |
| 2026-05-07 10:27 | 61.11355 | -6.19924 | 20917 ft | 369 kts | 314° |
| 2026-05-07 10:27 | 61.13291 | -6.23339 | 20458 ft | 363 kts | 314° |
| 2026-05-07 10:28 | 61.15201 | -6.26721 | 20018 ft | 358 kts | 314° |
| 2026-05-07 10:28 | 61.17082 | -6.30059 | 19576 ft | 354 kts | 314° |
| 2026-05-07 10:28 | 61.18941 | -6.33365 | 19135 ft | 350 kts | 314° |
| 2026-05-07 10:28 | 61.20753 | -6.36591 | 18712 ft | 346 kts | 315° |
| 2026-05-07 10:29 | 61.22567 | -6.39826 | 18286 ft | 343 kts | 315° |
| 2026-05-07 10:29 | 61.24367 | -6.43042 | 17828 ft | 340 kts | 315° |
| 2026-05-07 10:29 | 61.26152 | -6.46232 | 17397 ft | 338 kts | 315° |
| 2026-05-07 10:30 | 61.29976 | -6.53106 | 16477 ft | 379 kts | 316° |
| 2026-05-07 10:30 | 61.31981 | -6.56705 | 15999 ft | 381 kts | 316° |
| 2026-05-07 10:30 | 61.33978 | -6.60287 | 15521 ft | 379 kts | 316° |
| 2026-05-07 10:30 | 61.35958 | -6.63846 | 15047 ft | 373 kts | 316° |
| 2026-05-07 10:31 | 61.37905 | -6.67352 | 14588 ft | 368 kts | 316° |
| 2026-05-07 10:31 | 61.39830 | -6.70828 | 14128 ft | 363 kts | 316° |
| 2026-05-07 10:31 | 61.41727 | -6.74264 | 13665 ft | 359 kts | 316° |
| 2026-05-07 10:31 | 61.43604 | -6.77668 | 13195 ft | 355 kts | 316° |
| 2026-05-07 10:32 | 61.45457 | -6.81033 | 12743 ft | 351 kts | 316° |
| 2026-05-07 10:32 | 61.47265 | -6.84318 | 12322 ft | 346 kts | 316° |
| 2026-05-07 10:32 | 61.49093 | -6.87653 | 11885 ft | 342 kts | 316° |
| 2026-05-07 10:32 | 61.50853 | -6.90867 | 11458 ft | 339 kts | 316° |
| 2026-05-07 10:33 | 61.52618 | -6.94095 | 11037 ft | 335 kts | 317° |
| 2026-05-07 10:33 | 61.54358 | -6.97278 | 10796 ft | 330 kts | 317° |
| 2026-05-07 10:33 | 61.56109 | -7.00487 | 10745 ft | 335 kts | 317° |
| 2026-05-07 10:33 | 61.57861 | -7.03705 | 10523 ft | 334 kts | 317° |
| 2026-05-07 10:34 | 61.59636 | -7.06924 | 10067 ft | 336 kts | 321° |
| 2026-05-07 10:34 | 61.61564 | -7.09530 | 9924 ft | 324 kts | 333° |
| 2026-05-07 10:34 | 61.63550 | -7.11586 | 9810 ft | 312 kts | 333° |
| 2026-05-07 10:34 | 61.65452 | -7.13578 | 9688 ft | 300 kts | 333° |
| 2026-05-07 10:35 | 61.67315 | -7.15495 | 9334 ft | 297 kts | 338° |
| 2026-05-07 10:35 | 61.69280 | -7.16780 | 8947 ft | 294 kts | 349° |
| 2026-05-07 10:35 | 61.71239 | -7.17700 | 8595 ft | 291 kts | 349° |
| 2026-05-07 10:35 | 61.73205 | -7.18660 | 8191 ft | 289 kts | 349° |
| 2026-05-07 10:36 | 61.75158 | -7.19630 | 7791 ft | 287 kts | 349° |
| 2026-05-07 10:36 | 61.77096 | -7.20387 | 7407 ft | 281 kts | 358° |
| 2026-05-07 10:36 | 61.79033 | -7.20433 | 7018 ft | 277 kts | 4° |
| 2026-05-07 10:36 | 61.80954 | -7.20384 | 6692 ft | 275 kts | 4° |
| 2026-05-07 10:37 | 61.82857 | -7.20356 | 6413 ft | 274 kts | 4° |
| 2026-05-07 10:37 | 61.84760 | -7.20331 | 6145 ft | 272 kts | 4° |
| 2026-05-07 10:37 | 61.86651 | -7.20307 | 5797 ft | 270 kts | 4° |
| 2026-05-07 10:37 | 61.88526 | -7.20288 | 5463 ft | 267 kts | 3° |
| 2026-05-07 10:38 | 61.90350 | -7.20991 | 5095 ft | 270 kts | 342° |
| 2026-05-07 10:38 | 61.91980 | -7.23032 | 4679 ft | 274 kts | 327° |
| 2026-05-07 10:38 | 61.93506 | -7.25431 | 4288 ft | 272 kts | 327° |
| 2026-05-07 10:38 | 61.95000 | -7.27761 | 4057 ft | 265 kts | 328° |
| 2026-05-07 10:39 | 61.96468 | -7.30044 | 3998 ft | 257 kts | 328° |
| 2026-05-07 10:39 | 61.97885 | -7.32239 | 4000 ft | 247 kts | 328° |
| 2026-05-07 10:39 | 61.99241 | -7.34346 | 3992 ft | 234 kts | 328° |
| 2026-05-07 10:39 | 62.00410 | -7.36599 | 3996 ft | 223 kts | 309° |
| 2026-05-07 10:40 | 62.01025 | -7.39510 | 3998 ft | 210 kts | 289° |
| 2026-05-07 10:40 | 62.01434 | -7.42378 | 4003 ft | 200 kts | 290° |
| 2026-05-07 10:40 | 62.01869 | -7.45284 | 4002 ft | 209 kts | 290° |
| 2026-05-07 10:40 | 62.02309 | -7.48218 | 4033 ft | 203 kts | 290° |
| 2026-05-07 10:41 | 62.02882 | -7.50793 | 3995 ft | 180 kts | 312° |
| 2026-05-07 10:41 | 62.03639 | -7.52671 | 3988 ft | 162 kts | 317° |
| 2026-05-07 10:41 | 62.04487 | -7.54269 | 3983 ft | 163 kts | 346° |
| 2026-05-07 10:41 | 62.05527 | -7.54296 | 3931 ft | 145 kts | 32° |
| 2026-05-07 10:42 | 62.06310 | -7.53002 | 3722 ft | 144 kts | 46° |
| 2026-05-07 10:42 | 62.07069 | -7.51594 | 3465 ft | 141 kts | 44° |
| 2026-05-07 10:42 | 62.07810 | -7.50272 | 3242 ft | 137 kts | 44° |
| 2026-05-07 10:42 | 62.08540 | -7.48997 | 2889 ft | 135 kts | 43° |
| 2026-05-07 10:43 | 62.09099 | -7.47432 | 2469 ft | 134 kts | 74° |
| 2026-05-07 10:43 | 62.09113 | -7.45486 | 2095 ft | 134 kts | 95° |
| 2026-05-07 10:43 | 62.08932 | -7.43554 | 1894 ft | 132 kts | 100° |
| 2026-05-07 10:43 | 62.08665 | -7.41610 | 1776 ft | 141 kts | 104° |
| 2026-05-07 10:44 | 62.08362 | -7.39628 | 1591 ft | 140 kts | 103° |
| 2026-05-07 10:44 | 62.08105 | -7.37642 | 1348 ft | 138 kts | 100° |
| 2026-05-07 10:44 | 62.07900 | -7.35700 | 1114 ft | 130 kts | 98° |
| 2026-05-07 10:44 | 62.07707 | -7.33830 | 886 ft | 126 kts | 102° |
| 2026-05-07 10:45 | 62.07419 | -7.32109 | 634 ft | 120 kts | 110° |
| 2026-05-07 10:45 | 62.07066 | -7.30602 | 433 ft | 106 kts | 112° |
| 2026-05-07 10:45 | 62.06723 | -7.29207 | 583 ft | 114 kts | 114° |
| 2026-05-07 10:45 | 62.06281 | -7.27591 | 992 ft | 135 kts | 117° |
| 2026-05-07 10:46 | 62.05777 | -7.25777 | 1681 ft | 146 kts | 114° |
| 2026-05-07 10:46 | 62.05311 | -7.23846 | 2540 ft | 149 kts | 111° |
| 2026-05-07 10:46 | 62.04830 | -7.21767 | 3085 ft | 165 kts | 112° |
| 2026-05-07 10:46 | 62.04291 | -7.19498 | 3626 ft | 177 kts | 114° |
| 2026-05-07 10:47 | 62.03706 | -7.17111 | 3950 ft | 184 kts | 115° |
| 2026-05-07 10:47 | 62.03036 | -7.14680 | 4009 ft | 204 kts | 123° |
| 2026-05-07 10:47 | 62.01935 | -7.12680 | 3995 ft | 215 kts | 153° |
| 2026-05-07 10:47 | 62.00429 | -7.12349 | 4096 ft | 231 kts | 192° |
| 2026-05-07 10:48 | 61.99005 | -7.14056 | 4685 ft | 249 kts | 221° |
| 2026-05-07 10:48 | 61.98001 | -7.17160 | 4485 ft | 260 kts | 250° |
| 2026-05-07 10:48 | 61.97777 | -7.20897 | 4083 ft | 260 kts | 280° |
| 2026-05-07 10:48 | 61.98283 | -7.24467 | 3995 ft | 244 kts | 294° |
| 2026-05-07 10:49 | 61.98861 | -7.27782 | 4004 ft | 242 kts | 293° |
| 2026-05-07 10:49 | 61.99453 | -7.31204 | 4006 ft | 247 kts | 293° |
| 2026-05-07 10:49 | 62.00030 | -7.34617 | 4000 ft | 242 kts | 293° |
| 2026-05-07 10:49 | 62.00584 | -7.37930 | 3998 ft | 233 kts | 293° |
| 2026-05-07 10:50 | 62.01115 | -7.41115 | 3996 ft | 223 kts | 292° |
| 2026-05-07 10:50 | 62.01620 | -7.44155 | 4028 ft | 210 kts | 293° |
| 2026-05-07 10:50 | 62.02086 | -7.46973 | 3993 ft | 192 kts | 293° |
| 2026-05-07 10:50 | 62.02525 | -7.49490 | 4000 ft | 174 kts | 300° |
| 2026-05-07 10:51 | 62.03169 | -7.51512 | 3896 ft | 161 kts | 317° |
| 2026-05-07 10:51 | 62.03916 | -7.53305 | 3894 ft | 162 kts | 318° |
| 2026-05-07 10:51 | 62.04842 | -7.54406 | 3796 ft | 148 kts | 2° |
| 2026-05-07 10:51 | 62.05795 | -7.53803 | 3611 ft | 145 kts | 40° |
| 2026-05-07 10:52 | 62.06575 | -7.52419 | 3236 ft | 146 kts | 43° |
| 2026-05-07 10:52 | 62.07345 | -7.51055 | 2924 ft | 140 kts | 41° |
| 2026-05-07 10:52 | 62.08094 | -7.49749 | 2562 ft | 138 kts | 41° |
| 2026-05-07 10:52 | 62.08827 | -7.48419 | 2144 ft | 138 kts | 51° |
| 2026-05-07 10:53 | 62.09144 | -7.46580 | 1924 ft | 137 kts | 90° |
| 2026-05-07 10:53 | 62.08905 | -7.44581 | 2018 ft | 150 kts | 102° |
| 2026-05-07 10:53 | 62.08624 | -7.42394 | 1820 ft | 153 kts | 100° |
| 2026-05-07 10:53 | 62.08385 | -7.40217 | 1496 ft | 147 kts | 98° |
| 2026-05-07 10:54 | 62.08188 | -7.38093 | 1270 ft | 146 kts | 97° |
| 2026-05-07 10:54 | 62.07973 | -7.35959 | 1094 ft | 149 kts | 99° |
| 2026-05-07 10:54 | 62.07718 | -7.33849 | 876 ft | 144 kts | 104° |
| 2026-05-07 10:54 | 62.07379 | -7.31920 | 646 ft | 135 kts | 111° |
| 2026-05-07 10:55 | 62.06978 | -7.30211 | 406 ft | 121 kts | 114° |
| 2026-05-07 10:55 | 62.06612 | -7.28756 | 282 ft | 107 kts | 111° |
| 2026-05-07 10:55 | 62.06245 | -7.27240 | 373 ft | 133 kts | 113° |
| 2026-05-07 10:55 | 62.05815 | -7.25394 | 863 ft | 147 kts | 114° |
| 2026-05-07 10:56 | 62.05320 | -7.23347 | 1485 ft | 160 kts | 116° |
| 2026-05-07 10:56 | 62.04752 | -7.21188 | 2036 ft | 176 kts | 117° |
| 2026-05-07 10:56 | 62.04136 | -7.18872 | 2565 ft | 193 kts | 117° |
| 2026-05-07 10:56 | 62.03455 | -7.16260 | 3132 ft | 211 kts | 116° |
| 2026-05-07 10:57 | 62.02547 | -7.13625 | 3714 ft | 229 kts | 132° |
| 2026-05-07 10:57 | 62.01241 | -7.11610 | 3960 ft | 236 kts | 152° |
| 2026-05-07 10:57 | 61.99656 | -7.10629 | 4000 ft | 240 kts | 173° |
| 2026-05-07 10:57 | 61.97996 | -7.10958 | 3999 ft | 243 kts | 201° |
| 2026-05-07 10:58 | 61.96628 | -7.12996 | 3998 ft | 243 kts | 233° |
| 2026-05-07 10:58 | 61.96090 | -7.15054 | 3995 ft | 241 kts | 255° |
| 2026-05-07 10:58 | 61.96010 | -7.18534 | 4002 ft | 237 kts | 288° |
| 2026-05-07 10:58 | 61.96708 | -7.21653 | 4001 ft | 234 kts | 304° |
| 2026-05-07 10:59 | 61.97527 | -7.24630 | 4000 ft | 233 kts | 303° |
| 2026-05-07 10:59 | 61.98335 | -7.27621 | 3997 ft | 233 kts | 303° |
| 2026-05-07 10:59 | 61.99125 | -7.30628 | 4002 ft | 232 kts | 302° |
| 2026-05-07 10:59 | 61.99905 | -7.33640 | 4005 ft | 232 kts | 302° |
| 2026-05-07 11:00 | 62.00641 | -7.36702 | 4005 ft | 232 kts | 295° |
| 2026-05-07 11:00 | 62.01135 | -7.39952 | 3995 ft | 229 kts | 290° |
| 2026-05-07 11:00 | 62.01593 | -7.43157 | 4000 ft | 223 kts | 290° |
| 2026-05-07 11:00 | 62.02045 | -7.46262 | 3997 ft | 215 kts | 290° |
| 2026-05-07 11:01 | 62.02513 | -7.49221 | 3991 ft | 204 kts | 298° |
| 2026-05-07 11:01 | 62.03227 | -7.51652 | 3998 ft | 184 kts | 314° |
| 2026-05-07 11:01 | 62.04041 | -7.53444 | 3972 ft | 156 kts | 330° |
| 2026-05-07 11:01 | 62.05007 | -7.54162 | 3651 ft | 146 kts | 2° |
| 2026-05-07 11:02 | 62.05958 | -7.53499 | 3228 ft | 146 kts | 38° |
| 2026-05-07 11:02 | 62.06736 | -7.52128 | 2857 ft | 144 kts | 39° |
| 2026-05-07 11:02 | 62.07515 | -7.50768 | 2454 ft | 145 kts | 38° |
| 2026-05-07 11:02 | 62.08291 | -7.49428 | 2098 ft | 142 kts | 38° |
| 2026-05-07 11:03 | 62.08993 | -7.47964 | 1996 ft | 147 kts | 59° |
| 2026-05-07 11:03 | 62.09121 | -7.45797 | 1999 ft | 154 kts | 101° |
| 2026-05-07 11:03 | 62.08818 | -7.43564 | 1998 ft | 156 kts | 102° |
| 2026-05-07 11:03 | 62.08522 | -7.41339 | 1924 ft | 157 kts | 102° |
| 2026-05-07 11:04 | 62.08244 | -7.39121 | 1732 ft | 154 kts | 101° |
| 2026-05-07 11:04 | 62.08009 | -7.36886 | 1361 ft | 158 kts | 98° |
| 2026-05-07 11:04 | 62.07790 | -7.34592 | 991 ft | 159 kts | 99° |
| 2026-05-07 11:04 | 62.07474 | -7.32377 | 766 ft | 152 kts | 108° |
| 2026-05-07 11:05 | 62.07028 | -7.30447 | 522 ft | 138 kts | 112° |
| 2026-05-07 11:05 | 62.06611 | -7.28754 | 310 ft | 121 kts | 110° |
| 2026-05-07 11:05 | 62.06281 | -7.27296 | 326 ft | 113 kts | 114° |
| 2026-05-07 11:05 | 62.05819 | -7.25664 | 703 ft | 133 kts | 115° |
| 2026-05-07 11:06 | 62.05341 | -7.23844 | 1069 ft | 153 kts | 114° |
| 2026-05-07 11:06 | 62.04833 | -7.21707 | 1717 ft | 163 kts | 114° |
| 2026-05-07 11:06 | 62.04329 | -7.19633 | 2597 ft | 157 kts | 114° |
| 2026-05-07 11:06 | 62.03821 | -7.17594 | 3399 ft | 158 kts | 114° |
| 2026-05-07 11:07 | 62.03267 | -7.15407 | 3902 ft | 183 kts | 118° |
| 2026-05-07 11:07 | 62.02323 | -7.13193 | 4010 ft | 222 kts | 144° |
| 2026-05-07 11:07 | 62.00791 | -7.12192 | 4006 ft | 242 kts | 178° |
| 2026-05-07 11:07 | 61.99172 | -7.13051 | 4000 ft | 241 kts | 211° |
| 2026-05-07 11:08 | 61.98010 | -7.15543 | 4003 ft | 239 kts | 244° |
| 2026-05-07 11:08 | 61.97640 | -7.18914 | 4002 ft | 234 kts | 277° |
| 2026-05-07 11:08 | 61.98016 | -7.22273 | 3999 ft | 234 kts | 292° |
| 2026-05-07 11:08 | 61.98588 | -7.25490 | 4002 ft | 232 kts | 295° |
| 2026-05-07 11:09 | 61.99182 | -7.28685 | 4001 ft | 233 kts | 295° |
| 2026-05-07 11:09 | 61.99780 | -7.31882 | 4005 ft | 233 kts | 295° |
| 2026-05-07 11:09 | 62.00371 | -7.35098 | 4004 ft | 233 kts | 294° |
| 2026-05-07 11:09 | 62.00958 | -7.38294 | 4007 ft | 229 kts | 294° |
| 2026-05-07 11:10 | 62.01467 | -7.41480 | 4002 ft | 226 kts | 290° |
| 2026-05-07 11:10 | 62.01897 | -7.44656 | 4001 ft | 220 kts | 289° |
| 2026-05-07 11:10 | 62.02308 | -7.47737 | 4021 ft | 209 kts | 289° |
| 2026-05-07 11:10 | 62.02832 | -7.50432 | 3996 ft | 190 kts | 305° |
| 2026-05-07 11:11 | 62.03597 | -7.52538 | 3997 ft | 170 kts | 315° |
| 2026-05-07 11:11 | 62.04421 | -7.54170 | 3862 ft | 159 kts | 332° |
| 2026-05-07 11:11 | 62.05418 | -7.55029 | 3603 ft | 152 kts | 355° |
| 2026-05-07 11:11 | 62.06453 | -7.54914 | 3380 ft | 148 kts | 19° |
| 2026-05-07 11:12 | 62.07347 | -7.53908 | 3152 ft | 145 kts | 39° |
| 2026-05-07 11:12 | 62.08045 | -7.52359 | 2924 ft | 145 kts | 53° |
| 2026-05-07 11:12 | 62.08570 | -7.50527 | 2615 ft | 144 kts | 63° |
| 2026-05-07 11:12 | 62.08923 | -7.48522 | 2312 ft | 145 kts | 73° |
| 2026-05-07 11:13 | 62.09095 | -7.46380 | 2011 ft | 147 kts | 82° |
| 2026-05-07 11:13 | 62.09069 | -7.44194 | 1720 ft | 147 kts | 95° |
| 2026-05-07 11:13 | 62.08839 | -7.42068 | 1490 ft | 146 kts | 101° |
| 2026-05-07 11:13 | 62.08574 | -7.39955 | 1315 ft | 149 kts | 100° |
| 2026-05-07 11:14 | 62.08321 | -7.37813 | 1150 ft | 149 kts | 99° |
| 2026-05-07 11:14 | 62.08064 | -7.35733 | 1009 ft | 144 kts | 101° |
| 2026-05-07 11:14 | 62.07765 | -7.33724 | 850 ft | 139 kts | 105° |
| 2026-05-07 11:14 | 62.07398 | -7.31880 | 672 ft | 129 kts | 112° |
| 2026-05-07 11:15 | 62.06984 | -7.30254 | 460 ft | 120 kts | 111° |
| 2026-05-07 11:15 | 62.06598 | -7.28697 | 308 ft | 121 kts | 109° |
| 2026-05-07 11:15 | 62.06258 | -7.27259 | 282 ft | 77 kts | 120° |
| 2026-05-07 11:15 | 62.06106 | -7.26691 | 266 ft | 32 kts | 120° |
| 2026-05-07 11:16 | 62.06001 | -7.26275 | 251 ft | 30 kts | 117° |
| 2026-05-07 11:16 | 62.05956 | -7.26043 | 246 ft | 7 kts | 100° |
| 2026-05-07 11:16 | 62.05935 | -7.26011 | 246 ft | 3 kts | 191° |
| 2026-05-07 11:16 | 62.05929 | -7.26042 | 246 ft | 3 kts | 269° |
| 2026-05-07 11:17 | 62.05962 | -7.26139 | 246 ft | 14 kts | 304° |
| 2026-05-07 11:17 | 62.06033 | -7.26410 | 256 ft | 28 kts | 297° |
| 2026-05-07 11:17 | 62.06136 | -7.26824 | 271 ft | 33 kts | 298° |
| 2026-05-07 11:17 | 62.06241 | -7.27242 | 282 ft | 31 kts | 299° |
| 2026-05-07 11:18 | 62.06337 | -7.27636 | 291 ft | 29 kts | 297° |
| 2026-05-07 11:18 | 62.06431 | -7.28008 | 296 ft | 24 kts | 298° |
| 2026-05-07 11:18 | 62.06492 | -7.28143 | 289 ft | 11 kts | 355° |
| 2026-05-07 11:18 | 62.06554 | -7.28104 | 288 ft | 8 kts | 17° |
| 2026-05-07 11:19 | 62.06606 | -7.28088 | 285 ft | 6 kts | 2° |
| 2026-05-07 11:19 | 62.06629 | -7.28090 | 285 ft | 1 kts | 354° |
| 2026-05-07 11:19 | 62.06641 | -7.28094 | 285 ft | 2 kts | 350° |
| 2026-05-07 11:19 | 62.06664 | -7.28107 | 285 ft | 5 kts | 342° |
| 2026-05-07 11:20 | 62.06696 | -7.28106 | 285 ft | 4 kts | 37° |
| 2026-05-07 11:20 | 62.06707 | -7.28061 | 285 ft | 3 kts | 72° |
| 2026-05-07 11:20 | 62.06711 | -7.28029 | 285 ft | 1 kts | 73° |
| 2026-05-07 11:20 | 62.06712 | -7.28026 | 285 ft | 0 kts | 73° |